Time;durP1;ratioP1;P1;durP2;ratioP2;P2;SDS_P1;SDS_P2;PMS_P1;PMS_P2;Temp;Humidity;BMP_temperature;BMP_pressure;BME280_temperature;BME280_humidity;BME280_pressure;Samples;Min_cycle;Max_cycle;Signal;HPM_P1;HPM_P2
2024/04/20 00:01:22;;;;;;;7.63;4.40;;;13.10;44.80;;;;;;5356708;26;20018;-51
2024/04/20 00:04:08;;;;;;;6.65;4.90;;;13.00;44.70;;;;;;5387742;26;20818;-52
2024/04/20 00:06:53;;;;;;;7.57;4.60;;;13.00;44.70;;;;;;5374430;26;20022;-52
2024/04/20 00:09:37;;;;;;;6.47;4.38;;;13.00;44.80;;;;;;5389819;26;20007;-50
2024/04/20 00:12:22;;;;;;;6.82;4.60;;;13.00;44.80;;;;;;5384050;26;20030;-46
2024/04/20 00:15:07;;;;;;;7.28;4.65;;;13.00;44.90;;;;;;5382095;26;20079;-52
2024/04/20 00:17:52;;;;;;;8.55;5.18;;;13.00;44.90;;;;;;5394531;26;20079;-50
2024/04/20 00:20:38;;;;;;;9.38;6.10;;;13.00;45.00;;;;;;5388092;26;20014;-50
2024/04/20 00:23:22;;;;;;;7.15;5.05;;;12.90;44.90;;;;;;5388955;26;20464;-52
2024/04/20 00:26:08;;;;;;;9.65;5.80;;;12.90;44.90;;;;;;5382077;26;20018;-46
2024/04/20 00:28:52;;;;;;;6.57;4.28;;;12.90;44.90;;;;;;5394560;26;20632;-52
2024/04/20 00:31:37;;;;;;;6.45;4.57;;;12.80;44.80;;;;;;5386959;26;20007;-49
2024/04/20 00:34:22;;;;;;;7.97;4.47;;;12.90;45.10;;;;;;5358777;26;20018;-51
2024/04/20 00:37:06;;;;;;;5.95;4.18;;;12.80;44.90;;;;;;5386317;26;20027;-47
2024/04/20 00:39:51;;;;;;;7.22;4.57;;;12.80;45.00;;;;;;5387528;26;20013;-50
2024/04/20 00:42:36;;;;;;;8.35;4.38;;;12.80;45.60;;;;;;5390076;26;20456;-48
2024/04/20 00:45:22;;;;;;;8.25;4.82;;;12.80;45.10;;;;;;5356310;26;20074;-52
2024/04/20 00:48:07;;;;;;;5.38;4.53;;;12.80;45.10;;;;;;5391844;26;20071;-46
2024/04/20 00:50:53;;;;;;;5.63;3.38;;;12.70;44.90;;;;;;5383842;26;20006;-52
2024/04/20 00:53:38;;;;;;;5.55;3.10;;;12.70;44.90;;;;;;5382049;26;20768;-48
2024/04/20 00:56:23;;;;;;;4.13;2.65;;;12.70;44.90;;;;;;5402923;26;20491;-54
2024/04/20 00:59:08;;;;;;;5.18;3.10;;;12.60;44.70;;;;;;5396036;26;20482;-47
2024/04/20 01:01:54;;;;;;;5.85;3.42;;;12.70;44.80;;;;;;5358166;26;20006;-50
2024/04/20 01:04:39;;;;;;;5.53;2.53;;;12.70;44.80;;;;;;5396800;26;20077;-47
2024/04/20 01:07:24;;;;;;;4.32;2.35;;;12.60;44.60;;;;;;5359703;26;20089;-50
2024/04/20 01:10:09;;;;;;;5.35;2.30;;;12.60;44.60;;;;;;5349844;26;20093;-51
2024/04/20 01:13:04;;;;;;;6.57;2.13;;;12.50;44.40;;;;;;5391093;26;20040;-48
2024/04/20 01:15:48;;;;;;;3.78;2.00;;;12.50;44.40;;;;;;5392947;26;20071;-47
2024/04/20 01:18:33;;;;;;;3.97;2.00;;;12.50;44.30;;;;;;5391084;26;20463;-51
2024/04/20 01:21:19;;;;;;;3.45;1.90;;;12.40;44.00;;;;;;5387948;26;20090;-52
2024/04/20 01:24:09;;;;;;;4.60;1.75;;;12.40;44.00;;;;;;5360564;26;20014;-54
2024/04/20 01:26:54;;;;;;;2.33;1.50;;;12.40;43.90;;;;;;5384433;26;20026;-52
2024/04/20 01:29:39;;;;;;;2.05;1.67;;;12.40;43.90;;;;;;5362544;26;20729;-51
2024/04/20 01:32:24;;;;;;;3.15;1.63;;;12.30;43.70;;;;;;5390998;26;20061;-52
2024/04/20 01:35:09;;;;;;;5.32;1.42;;;12.30;43.70;;;;;;5394313;26;20870;-48
2024/04/20 01:37:54;;;;;;;2.55;1.65;;;12.20;43.50;;;;;;5383262;26;20456;-47
2024/04/20 01:40:39;;;;;;;3.15;1.40;;;12.20;43.50;;;;;;5393283;26;20587;-48
2024/04/20 01:43:23;;;;;;;4.22;1.70;;;12.20;43.40;;;;;;5391007;26;20047;-49
2024/04/20 01:46:08;;;;;;;1.38;1.10;;;12.10;43.20;;;;;;5394286;26;20586;-54
2024/04/20 01:48:53;;;;;;;4.32;1.33;;;12.10;43.10;;;;;;5398473;26;20090;-49
2024/04/20 01:51:37;;;;;;;2.58;1.08;;;12.00;43.00;;;;;;5389653;26;20448;-49
2024/04/20 01:54:22;;;;;;;3.45;1.40;;;12.00;43.00;;;;;;5392839;26;20085;-50
2024/04/20 01:57:07;;;;;;;1.55;1.00;;;11.90;42.80;;;;;;5387372;26;20092;-52
2024/04/20 01:59:52;;;;;;;5.57;1.77;;;11.90;42.80;;;;;;5391217;26;20421;-54
2024/04/20 02:02:36;;;;;;;1.98;0.80;;;11.80;42.60;;;;;;5402373;26;20010;-47
2024/04/20 02:05:22;;;;;;;3.63;1.13;;;11.80;42.60;;;;;;5385023;26;20018;-51
2024/04/20 02:08:08;;;;;;;2.88;1.20;;;11.70;42.40;;;;;;5384579;26;20158;-51
2024/04/20 02:10:54;;;;;;;2.17;0.90;;;11.70;42.50;;;;;;5389492;26;20011;-48
2024/04/20 02:13:38;;;;;;;3.78;1.30;;;11.60;42.30;;;;;;5395363;26;20456;-47
2024/04/20 02:16:23;;;;;;;3.20;1.13;;;11.60;42.30;;;;;;5388853;26;20658;-48
2024/04/20 02:19:08;;;;;;;2.65;0.90;;;11.60;42.30;;;;;;5379686;26;20724;-48
2024/04/20 02:21:53;;;;;;;2.08;0.82;;;11.50;42.10;;;;;;5395144;26;20018;-50
2024/04/20 02:24:38;;;;;;;2.40;0.75;;;11.50;42.10;;;;;;5388358;26;20123;-48
2024/04/20 02:27:23;;;;;;;3.72;1.10;;;11.40;42.00;;;;;;5402177;26;20017;-49
2024/04/20 02:30:08;;;;;;;2.50;1.20;;;11.40;42.00;;;;;;5383407;26;20136;-50
2024/04/20 02:32:53;;;;;;;2.78;1.48;;;11.30;41.80;;;;;;5387695;26;20084;-54
2024/04/20 02:35:39;;;;;;;4.28;0.98;;;11.30;41.90;;;;;;5391531;26;20073;-46
2024/04/20 02:38:24;;;;;;;2.72;1.10;;;11.20;41.70;;;;;;5383044;26;20459;-52
2024/04/20 02:41:09;;;;;;;1.88;1.00;;;11.20;41.70;;;;;;5350227;26;20027;-50
2024/04/20 02:43:54;;;;;;;3.67;1.10;;;11.10;41.60;;;;;;5384542;26;20026;-49
2024/04/20 02:46:38;;;;;;;5.53;1.73;;;11.10;41.60;;;;;;5386960;26;20043;-48
2024/04/20 02:49:23;;;;;;;2.15;0.85;;;11.00;41.50;;;;;;5389835;26;20043;-47
2024/04/20 02:52:08;;;;;;;2.63;1.08;;;10.90;41.40;;;;;;5387362;26;20044;-49
2024/04/20 02:54:53;;;;;;;3.40;1.25;;;10.80;41.30;;;;;;5394044;26;20019;-50
2024/04/20 02:57:38;;;;;;;2.60;0.90;;;10.80;41.30;;;;;;5383369;26;20017;-51
2024/04/20 03:00:22;;;;;;;1.80;0.90;;;10.70;41.30;;;;;;5382586;26;20076;-48
2024/04/20 03:03:08;;;;;;;4.35;1.30;;;10.60;41.10;;;;;;5379684;26;20019;-52
2024/04/20 03:05:52;;;;;;;2.50;0.90;;;10.60;41.20;;;;;;5396736;26;20015;-47
2024/04/20 03:08:37;;;;;;;2.65;0.80;;;10.50;41.10;;;;;;5371187;26;20555;-50
2024/04/20 03:11:22;;;;;;;3.42;1.23;;;10.50;41.10;;;;;;5359051;26;20082;-48
2024/04/20 03:14:07;;;;;;;1.85;0.93;;;10.40;41.00;;;;;;5382644;26;20083;-48
2024/04/20 03:16:52;;;;;;;2.40;1.00;;;10.40;41.10;;;;;;5381423;26;20451;-50
2024/04/20 03:19:37;;;;;;;2.85;1.00;;;10.30;41.00;;;;;;5384656;26;20018;-50
2024/04/20 03:22:21;;;;;;;1.88;1.08;;;10.30;41.00;;;;;;5388201;26;20075;-52
2024/04/20 03:25:06;;;;;;;2.13;1.10;;;10.20;40.90;;;;;;5375262;26;20073;-49
2024/04/20 03:27:52;;;;;;;2.17;0.98;;;10.20;40.90;;;;;;5379950;26;20471;-51
2024/04/20 03:30:37;;;;;;;1.77;0.85;;;10.10;40.80;;;;;;5379465;26;20084;-51
2024/04/20 03:33:27;;;;;;;3.63;1.00;;;10.00;40.70;;;;;;5361625;26;20580;-49
2024/04/20 03:36:12;;;;;;;2.10;0.88;;;10.00;40.80;;;;;;5381719;26;20023;-49
2024/04/20 03:38:56;;;;;;;2.78;1.00;;;9.90;40.60;;;;;;5379725;26;20007;-52
2024/04/20 03:41:43;;;;;;;1.95;1.00;;;9.90;40.70;;;;;;5377066;26;20120;-50
2024/04/20 03:44:28;;;;;;;1.90;0.90;;;9.90;40.80;;;;;;5388252;26;20022;-52
2024/04/20 03:47:12;;;;;;;2.25;0.98;;;9.70;40.50;;;;;;5387570;26;20014;-55
2024/04/20 03:49:57;;;;;;;2.17;0.95;;;9.70;40.60;;;;;;5359278;26;20011;-48
2024/04/20 03:52:45;;;;;;;2.47;0.90;;;9.60;40.50;;;;;;5378052;26;20111;-49
2024/04/20 03:55:30;;;;;;;2.60;1.20;;;9.60;40.60;;;;;;5387160;26;20587;-49
2024/04/20 03:58:15;;;;;;;3.45;1.05;;;9.50;40.50;;;;;;5386125;26;20010;-50
2024/04/20 04:00:59;;;;;;;3.78;1.80;;;9.40;40.40;;;;;;5397678;26;20007;-50
2024/04/20 04:03:44;;;;;;;1.33;0.73;;;9.40;40.50;;;;;;5385251;26;20462;-49
2024/04/20 04:06:29;;;;;;;1.92;0.80;;;9.30;40.40;;;;;;5370524;26;20342;-51
2024/04/20 04:09:13;;;;;;;1.17;0.75;;;9.30;40.50;;;;;;5354893;26;20357;-49
2024/04/20 04:11:59;;;;;;;2.60;0.93;;;9.30;40.60;;;;;;5383233;26;20112;-52
2024/04/20 04:14:43;;;;;;;1.58;1.10;;;9.20;40.80;;;;;;5378541;26;20039;-49
2024/04/20 04:17:28;;;;;;;1.70;0.88;;;9.20;40.50;;;;;;5340395;26;20012;-49
2024/04/20 04:20:14;;;;;;;1.75;1.40;;;9.10;40.40;;;;;;5368975;26;20018;-54
2024/04/20 04:23:00;;;;;;;2.42;1.00;;;9.00;40.30;;;;;;5338776;26;20007;-52
2024/04/20 04:25:45;;;;;;;3.33;0.90;;;9.00;40.30;;;;;;5335873;26;20671;-52
2024/04/20 04:28:30;;;;;;;1.92;1.10;;;9.00;40.40;;;;;;5343923;26;20844;-49
2024/04/20 04:31:15;;;;;;;1.63;1.00;;;8.90;40.40;;;;;;5357286;26;20011;-52
2024/04/20 04:34:00;;;;;;;3.13;1.25;;;8.90;40.40;;;;;;5329458;26;20014;-51
2024/04/20 04:36:44;;;;;;;2.78;0.88;;;8.80;40.30;;;;;;5362714;26;20543;-51
2024/04/20 04:39:32;;;;;;;2.75;1.00;;;8.80;40.40;;;;;;5359570;26;20475;-47
2024/04/20 04:42:16;;;;;;;3.05;0.93;;;8.70;40.30;;;;;;5320582;26;20355;-50
2024/04/20 04:45:02;;;;;;;2.80;0.90;;;8.60;40.20;;;;;;5365034;26;20027;-49
2024/04/20 04:47:47;;;;;;;2.08;1.10;;;8.60;40.30;;;;;;5349022;26;20019;-59
2024/04/20 04:50:32;;;;;;;2.47;0.85;;;8.50;40.20;;;;;;5340015;26;20011;-52
2024/04/20 04:53:17;;;;;;;1.67;1.17;;;8.50;40.30;;;;;;5318619;26;20543;-48
2024/04/20 04:56:05;;;;;;;1.38;0.75;;;8.50;40.30;;;;;;5368435;26;20014;-52
2024/04/20 04:58:49;;;;;;;1.83;0.95;;;8.40;40.20;;;;;;5367416;26;20019;-50
2024/04/20 05:01:37;;;;;;;2.75;1.10;;;8.40;40.30;;;;;;5353181;26;20818;-52
2024/04/20 05:04:22;;;;;;;1.88;1.23;;;8.30;40.10;;;;;;5353761;26;20475;-51
2024/04/20 05:07:07;;;;;;;3.20;1.10;;;8.30;40.20;;;;;;5364985;26;20032;-50
2024/04/20 05:09:53;;;;;;;2.88;0.88;;;8.30;40.30;;;;;;5333649;26;20245;-50
2024/04/20 05:12:38;;;;;;;1.70;0.73;;;8.20;40.10;;;;;;5347774;26;20054;-47
2024/04/20 05:15:23;;;;;;;2.40;0.82;;;8.20;40.10;;;;;;5375104;26;20876;-52
2024/04/20 05:18:08;;;;;;;2.45;0.93;;;8.10;40.00;;;;;;5364169;26;20155;-51
2024/04/20 05:20:52;;;;;;;2.42;1.17;;;8.10;40.10;;;;;;5384829;26;20467;-48
2024/04/20 05:23:36;;;;;;;2.95;1.00;;;8.10;40.10;;;;;;5353030;26;20074;-51
2024/04/20 05:26:25;;;;;;;2.33;0.95;;;8.10;40.10;;;;;;5384272;26;20722;-49
2024/04/20 05:29:11;;;;;;;1.75;0.80;;;8.00;40.00;;;;;;5388197;26;20019;-50
2024/04/20 05:31:57;;;;;;;2.35;1.00;;;8.00;40.00;;;;;;5358083;26;20390;-48
2024/04/20 05:34:41;;;;;;;1.40;0.80;;;8.00;40.10;;;;;;5387925;26;20471;-49
2024/04/20 05:37:26;;;;;;;1.95;1.25;;;8.00;40.10;;;;;;5337057;26;20010;-53
2024/04/20 05:40:11;;;;;;;3.80;1.08;;;8.00;40.10;;;;;;5376961;26;20358;-50
2024/04/20 05:42:56;;;;;;;3.08;1.65;;;8.00;40.20;;;;;;5325491;26;20042;-49
2024/04/20 05:45:42;;;;;;;2.72;0.90;;;8.00;40.40;;;;;;5385033;26;20116;-52
2024/04/20 05:48:28;;;;;;;1.70;0.93;;;8.00;41.00;;;;;;5389527;26;20011;-49
2024/04/20 05:51:14;;;;;;;4.68;1.05;;;8.10;41.40;;;;;;5383766;26;20018;-51
2024/04/20 05:53:58;;;;;;;2.95;1.02;;;8.20;41.90;;;;;;5385963;26;20075;-46
2024/04/20 05:56:44;;;;;;;4.63;1.15;;;8.30;42.60;;;;;;5387943;26;20548;-48
2024/04/20 05:59:29;;;;;;;12.98;5.90;;;8.50;43.30;;;;;;5389519;26;20014;-50
2024/04/20 06:02:14;;;;;;;17.90;5.40;;;8.60;43.50;;;;;;5392016;26;20011;-53
2024/04/20 06:05:02;;;;;;;8.98;5.30;;;8.70;43.80;;;;;;5389608;26;20014;-48
2024/04/20 06:07:47;;;;;;;9.25;4.78;;;8.90;44.30;;;;;;5386648;26;20686;-50
2024/04/20 06:10:32;;;;;;;7.90;4.15;;;9.00;44.70;;;;;;5378874;26;20014;-50
2024/04/20 06:13:17;;;;;;;6.00;3.55;;;9.20;45.70;;;;;;5380298;26;20010;-47
2024/04/20 06:16:02;;;;;;;9.45;3.78;;;9.40;46.40;;;;;;5383236;26;20454;-51
2024/04/20 06:18:47;;;;;;;5.13;3.47;;;9.70;47.10;;;;;;5390071;26;20077;-50
2024/04/20 06:21:33;;;;;;;4.65;3.17;;;10.00;47.60;;;;;;5372988;26;20368;-50
2024/04/20 06:24:18;;;;;;;4.13;2.83;;;10.30;48.00;;;;;;5388549;26;20596;-49
2024/04/20 06:27:04;;;;;;;6.60;2.90;;;10.60;48.40;;;;;;5385077;26;20413;-50
2024/04/20 06:29:49;;;;;;;5.65;2.80;;;11.00;48.80;;;;;;5384025;26;20010;-50
2024/04/20 06:32:34;;;;;;;6.80;2.15;;;11.30;49.10;;;;;;5384075;26;20018;-50
2024/04/20 06:35:18;;;;;;;6.93;2.50;;;11.60;49.30;;;;;;5382354;26;20611;-51
2024/04/20 06:38:04;;;;;;;5.72;2.10;;;12.00;49.60;;;;;;5351054;26;20038;-54
2024/04/20 06:40:49;;;;;;;3.92;2.00;;;12.40;49.90;;;;;;5391004;26;20101;-50
2024/04/20 06:43:37;;;;;;;7.95;2.42;;;12.80;50.00;;;;;;5363315;26;20434;-47
2024/04/20 06:46:22;;;;;;;3.97;1.83;;;13.20;50.10;;;;;;5353359;26;20018;-50
2024/04/20 06:49:07;;;;;;;4.00;2.47;;;13.70;50.20;;;;;;5378070;26;20571;-48
2024/04/20 06:51:52;;;;;;;5.82;2.13;;;14.10;50.20;;;;;;5384379;26;20034;-50
2024/04/20 06:54:36;;;;;;;2.97;1.83;;;14.50;50.20;;;;;;5381725;26;20014;-49
2024/04/20 06:57:22;;;;;;;5.75;1.98;;;14.90;50.20;;;;;;5388441;26;20010;-50
2024/04/20 07:00:08;;;;;;;4.65;1.85;;;15.20;50.00;;;;;;5385645;26;20026;-57
2024/04/20 07:02:52;;;;;;;3.15;1.40;;;15.60;50.10;;;;;;5387994;26;20017;-46
2024/04/20 07:05:37;;;;;;;3.20;1.70;;;15.90;49.80;;;;;;5383455;26;20015;-51
2024/04/20 07:08:23;;;;;;;4.88;2.00;;;16.30;49.70;;;;;;5384558;26;20011;-53
2024/04/20 07:11:07;;;;;;;6.38;1.70;;;16.60;49.50;;;;;;5383201;26;20100;-50
2024/04/20 07:13:55;;;;;;;3.42;1.48;;;16.90;49.40;;;;;;5368354;26;20003;-49
2024/04/20 07:16:40;;;;;;;4.05;1.92;;;17.20;49.20;;;;;;5380409;26;20048;-50
2024/04/20 07:19:25;;;;;;;2.58;1.50;;;17.50;49.00;;;;;;5376495;26;20011;-48
2024/04/20 07:22:09;;;;;;;2.47;1.20;;;17.80;48.80;;;;;;5381355;26;20440;-53
2024/04/20 07:24:54;;;;;;;3.08;1.40;;;18.00;48.60;;;;;;5383382;26;20015;-49
2024/04/20 07:27:38;;;;;;;2.33;1.02;;;18.10;48.30;;;;;;5385410;26;20009;-50
2024/04/20 07:30:23;;;;;;;4.13;1.83;;;18.20;48.40;;;;;;5377344;26;20015;-51
2024/04/20 07:33:08;;;;;;;3.20;1.70;;;18.30;48.40;;;;;;5385426;26;20057;-51
2024/04/20 07:35:53;;;;;;;5.13;1.20;;;18.30;48.20;;;;;;5373273;26;20107;-50
2024/04/20 07:38:38;;;;;;;2.42;1.48;;;18.30;48.00;;;;;;5377892;26;20591;-50
2024/04/20 07:41:23;;;;;;;4.82;1.35;;;18.40;48.00;;;;;;5380791;26;20015;-50
2024/04/20 07:44:08;;;;;;;2.72;1.33;;;18.40;47.90;;;;;;5356745;26;20046;-49
2024/04/20 07:47:02;;;;;;;4.80;1.50;;;18.40;47.80;;;;;;5378138;26;20011;-46
2024/04/20 07:49:47;;;;;;;3.83;1.52;;;18.50;47.70;;;;;;5360699;26;20007;-48
2024/04/20 07:52:32;;;;;;;3.40;1.70;;;18.60;47.70;;;;;;5380404;26;20010;-46
2024/04/20 07:55:18;;;;;;;1.65;0.98;;;18.70;47.50;;;;;;5360277;26;20089;-47
2024/04/20 07:58:03;;;;;;;3.60;1.20;;;18.80;47.40;;;;;;5381249;26;20609;-48
2024/04/20 08:00:48;;;;;;;3.55;0.93;;;18.90;47.30;;;;;;5360312;26;20013;-49
2024/04/20 08:03:33;;;;;;;2.80;1.00;;;18.90;47.10;;;;;;5380630;26;20014;-47
2024/04/20 08:06:19;;;;;;;1.80;0.90;;;18.90;47.20;;;;;;5383157;26;20007;-55
2024/04/20 08:09:04;;;;;;;2.88;1.20;;;18.80;47.10;;;;;;5384580;26;20006;-47
2024/04/20 08:11:48;;;;;;;4.53;0.90;;;18.80;47.20;;;;;;5385648;26;20087;-47
2024/04/20 08:14:34;;;;;;;1.90;1.05;;;18.80;47.10;;;;;;5379465;26;20076;-50
2024/04/20 08:17:19;;;;;;;4.47;1.10;;;18.70;46.90;;;;;;5380558;26;20447;-59
2024/04/20 08:20:05;;;;;;;3.17;1.13;;;18.70;47.00;;;;;;5383105;26;20067;-47
2024/04/20 08:22:49;;;;;;;4.97;1.30;;;18.50;46.70;;;;;;5384908;26;20073;-49
2024/04/20 08:25:34;;;;;;;3.80;1.15;;;18.40;46.50;;;;;;5381469;26;20018;-51
2024/04/20 08:28:20;;;;;;;4.22;1.27;;;18.30;46.40;;;;;;5400053;26;20015;-52
2024/04/20 08:31:05;;;;;;;2.97;1.05;;;18.20;46.40;;;;;;5379809;26;20785;-56
2024/04/20 08:33:49;;;;;;;3.78;1.27;;;18.10;46.00;;;;;;5381839;26;20014;-51
2024/04/20 08:36:34;;;;;;;5.03;1.10;;;18.00;45.70;;;;;;5382480;26;20081;-53
2024/04/20 08:39:19;;;;;;;3.45;1.20;;;17.90;45.30;;;;;;5359262;26;20018;-49
2024/04/20 08:42:15;;;;;;;2.70;1.08;;;17.70;44.80;;;;;;5382199;26;20563;-48
2024/04/20 08:45:08;;;;;;;2.50;1.27;;;17.60;44.40;;;;;;5381229;26;20085;-50
2024/04/20 08:47:54;;;;;;;2.40;0.88;;;17.50;44.30;;;;;;5371045;26;20022;-48
2024/04/20 08:50:39;;;;;;;3.65;1.30;;;17.40;44.00;;;;;;5389016;26;20009;-52
2024/04/20 08:53:25;;;;;;;2.72;1.08;;;17.30;43.70;;;;;;5350925;26;20109;-47
2024/04/20 08:56:10;;;;;;;0.93;0.75;;;17.20;43.40;;;;;;5382638;26;20002;-47
2024/04/20 08:58:55;;;;;;;3.53;1.45;;;17.10;43.10;;;;;;5396148;26;20018;-49
2024/04/20 09:01:41;;;;;;;3.97;1.13;;;17.00;42.70;;;;;;5397571;26;20116;-47
2024/04/20 09:04:26;;;;;;;1.88;1.13;;;16.90;42.40;;;;;;5385515;26;20014;-50
2024/04/20 09:07:10;;;;;;;2.15;0.98;;;16.90;42.20;;;;;;5386043;26;20911;-51
2024/04/20 09:09:55;;;;;;;3.28;0.98;;;16.80;41.90;;;;;;5380398;26;20010;-50
2024/04/20 09:12:40;;;;;;;2.20;1.10;;;16.80;41.70;;;;;;5391833;26;20009;-46
2024/04/20 09:15:28;;;;;;;3.05;0.82;;;16.80;41.60;;;;;;5381656;26;20010;-51
2024/04/20 09:18:19;;;;;;;4.32;1.20;;;16.70;41.20;;;;;;5380537;26;20118;-47
2024/04/20 09:21:03;;;;;;;2.95;1.30;;;16.70;41.00;;;;;;5356420;26;20084;-49
2024/04/20 09:23:48;;;;;;;3.75;1.38;;;16.70;40.90;;;;;;5379919;26;20619;-47
2024/04/20 09:26:34;;;;;;;3.95;1.05;;;16.70;40.70;;;;;;5385705;26;20337;-50
2024/04/20 09:29:21;;;;;;;3.40;1.20;;;16.70;40.60;;;;;;5376623;26;20069;-50
2024/04/20 09:32:07;;;;;;;3.67;0.95;;;16.80;40.50;;;;;;5375082;26;20472;-46
2024/04/20 09:34:52;;;;;;;2.88;1.33;;;16.70;40.20;;;;;;5379896;26;20750;-48
2024/04/20 09:37:37;;;;;;;3.53;1.40;;;16.70;40.10;;;;;;5384399;26;20942;-50
2024/04/20 09:40:25;;;;;;;2.13;0.90;;;16.70;40.00;;;;;;5355954;26;20084;-46
2024/04/20 09:43:14;;;;;;;2.47;0.88;;;16.70;39.80;;;;;;5363919;26;20822;-51
2024/04/20 09:46:04;;;;;;;2.42;1.10;;;16.70;39.60;;;;;;5379671;26;20022;-47
2024/04/20 09:48:51;;;;;;;3.83;1.05;;;16.80;39.70;;;;;;5362945;26;20010;-48
2024/04/20 09:51:43;;;;;;;3.28;1.30;;;16.80;39.70;;;;;;5353504;26;20044;-48
2024/04/20 09:54:32;;;;;;;5.72;2.10;;;16.80;39.70;;;;;;5379017;26;20010;-48
2024/04/20 09:57:18;;;;;;;3.22;1.00;;;16.90;39.90;;;;;;5381477;26;20164;-49
2024/04/20 10:00:06;;;;;;;3.95;1.25;;;17.00;40.00;;;;;;5382319;26;20026;-48
2024/04/20 10:02:50;;;;;;;3.40;1.10;;;17.00;39.90;;;;;;5359576;26;20091;-50
2024/04/20 10:05:39;;;;;;;2.63;1.20;;;17.00;39.90;;;;;;5385983;26;20018;-48
2024/04/20 10:08:26;;;;;;;2.72;1.17;;;17.10;39.90;;;;;;5384327;26;20006;-48
2024/04/20 10:11:12;;;;;;;4.47;1.40;;;17.20;40.10;;;;;;5375158;26;20625;-48
2024/04/20 10:14:01;;;;;;;4.15;1.00;;;17.20;40.00;;;;;;5374837;26;20014;-48
2024/04/20 10:16:46;;;;;;;2.10;1.20;;;17.20;39.90;;;;;;5398192;26;20022;-48
2024/04/20 10:19:44;;;;;;;2.53;1.67;;;17.30;40.00;;;;;;5380179;26;20010;-49
2024/04/20 10:22:29;;;;;;;2.58;1.13;;;17.40;40.10;;;;;;5391113;26;20006;-48
2024/04/20 10:25:15;;;;;;;4.18;1.30;;;17.40;40.10;;;;;;5371950;26;20018;-47
2024/04/20 10:28:00;;;;;;;5.63;1.60;;;17.50;40.20;;;;;;5392276;26;20354;-51
2024/04/20 10:30:54;;;;;;;4.18;1.90;;;17.50;40.10;;;;;;5364981;26;20056;-49
2024/04/20 10:33:41;;;;;;;3.95;1.17;;;17.60;40.10;;;;;;5360590;26;20015;-49
2024/04/20 10:36:30;;;;;;;2.90;1.00;;;17.70;40.30;;;;;;5384277;26;20047;-50
2024/04/20 10:39:14;;;;;;;2.95;1.20;;;17.70;40.20;;;;;;5345626;26;20080;-49
2024/04/20 10:42:07;;;;;;;2.67;1.40;;;17.80;40.30;;;;;;5375229;26;20100;-50
2024/04/20 10:45:06;;;;;;;3.47;1.30;;;17.80;40.10;;;;;;5341824;26;20036;-51
2024/04/20 10:47:51;;;;;;;4.30;1.40;;;17.90;40.10;;;;;;5382394;26;20006;-51
2024/04/20 10:50:35;;;;;;;2.05;1.33;;;17.90;40.10;;;;;;5384871;26;20331;-48
2024/04/20 10:53:23;;;;;;;2.78;1.40;;;18.00;40.10;;;;;;5378962;26;20010;-48
2024/04/20 10:56:09;;;;;;;4.65;1.67;;;18.10;40.20;;;;;;5383537;26;20026;-49
2024/04/20 10:58:53;;;;;;;4.15;1.70;;;18.10;40.00;;;;;;5389709;26;20022;-48
2024/04/20 11:01:43;;;;;;;4.05;1.20;;;18.10;39.90;;;;;;5379476;26;20045;-49
2024/04/20 11:04:31;;;;;;;2.78;1.35;;;18.10;39.80;;;;;;5349182;26;20010;-51
2024/04/20 11:07:18;;;;;;;3.83;1.50;;;18.20;40.00;;;;;;5380003;26;20006;-47
2024/04/20 11:10:03;;;;;;;2.55;1.35;;;18.20;39.90;;;;;;5383904;26;20012;-51
2024/04/20 11:13:02;;;;;;;6.32;1.95;;;18.30;40.00;;;;;;5378249;26;20010;-49
2024/04/20 11:15:47;;;;;;;3.38;1.50;;;18.30;39.70;;;;;;5367499;26;20010;-48
2024/04/20 11:18:33;;;;;;;2.67;1.17;;;18.40;39.90;;;;;;5367668;26;20070;-47
2024/04/20 11:21:17;;;;;;;3.70;1.20;;;18.50;39.90;;;;;;5399966;26;20010;-50
2024/04/20 11:24:03;;;;;;;3.25;1.48;;;18.60;40.00;;;;;;5379334;26;20014;-47
2024/04/20 11:26:58;;;;;;;2.78;0.95;;;18.60;39.90;;;;;;5381072;26;20073;-48
2024/04/20 11:29:43;;;;;;;3.22;1.63;;;18.70;40.50;;;;;;5396825;26;20014;-47
2024/04/20 11:32:27;;;;;;;2.13;1.10;;;18.80;40.00;;;;;;5389681;26;20013;-49
2024/04/20 11:35:16;;;;;;;3.33;1.38;;;18.90;40.00;;;;;;5384491;26;20018;-49
2024/04/20 11:38:06;;;;;;;2.55;1.20;;;19.00;40.00;;;;;;5391002;26;20539;-46
2024/04/20 11:40:52;;;;;;;2.97;1.52;;;19.00;39.90;;;;;;5380752;26;20097;-48
2024/04/20 11:43:39;;;;;;;2.95;1.75;;;19.00;39.90;;;;;;5376843;26;20018;-48
2024/04/20 11:46:25;;;;;;;3.30;1.50;;;19.00;39.80;;;;;;5382076;26;20006;-48
2024/04/20 11:49:14;;;;;;;3.47;1.50;;;19.10;39.90;;;;;;5384464;26;20011;-47
2024/04/20 11:55:05;;;;;;;3.97;2.20;;;19.20;39.80;;;;;;5392219;26;20482;-50
2024/04/20 11:57:52;;;;;;;4.53;2.40;;;19.20;39.70;;;;;;5370616;26;20075;-51
2024/04/20 12:00:38;;;;;;;4.28;1.98;;;19.30;39.80;;;;;;5381257;26;20015;-47
2024/04/20 12:03:22;;;;;;;4.10;2.30;;;19.40;39.90;;;;;;5375428;26;20069;-49
2024/04/20 12:06:10;;;;;;;6.60;2.70;;;19.40;39.80;;;;;;5381045;26;20733;-50
2024/04/20 12:08:55;;;;;;;5.68;2.10;;;19.50;39.90;;;;;;5353449;26;20006;-47
2024/04/20 12:11:39;;;;;;;5.03;2.20;;;19.60;39.90;;;;;;5379071;26;20074;-47
2024/04/20 12:14:24;;;;;;;4.00;2.45;;;19.60;39.60;;;;;;5363850;26;20532;-51
2024/04/20 12:17:09;;;;;;;3.35;1.75;;;19.60;39.60;;;;;;5375327;26;20329;-51
2024/04/20 12:19:54;;;;;;;5.10;2.40;;;19.50;39.50;;;;;;5348624;26;20009;-51
2024/04/20 12:22:39;;;;;;;5.22;2.25;;;19.60;39.60;;;;;;5391775;26;20006;-48
2024/04/20 12:25:26;;;;;;;3.42;1.90;;;19.70;39.70;;;;;;5364720;26;20141;-50
2024/04/20 12:28:11;;;;;;;5.65;3.85;;;19.80;39.60;;;;;;5380333;26;20430;-47
2024/04/20 12:30:56;;;;;;;7.25;2.20;;;19.80;39.40;;;;;;5377574;26;20507;-47
2024/04/20 12:33:41;;;;;;;3.65;2.08;;;19.90;39.40;;;;;;5397334;26;20341;-48
2024/04/20 12:36:26;;;;;;;4.32;1.73;;;20.10;39.60;;;;;;5386469;26;20055;-48
2024/04/20 12:39:13;;;;;;;3.58;2.17;;;20.20;39.50;;;;;;5366629;26;20014;-52
2024/04/20 12:41:58;;;;;;;7.10;2.42;;;20.30;39.60;;;;;;5364680;26;20078;-48
2024/04/20 12:44:43;;;;;;;3.17;2.00;;;20.40;39.70;;;;;;5387810;26;20432;-51
2024/04/20 12:47:27;;;;;;;3.83;1.52;;;20.50;39.70;;;;;;5386886;26;20018;-47
2024/04/20 12:50:13;;;;;;;4.28;1.67;;;20.60;39.70;;;;;;5358589;26;20071;-48
2024/04/20 12:52:58;;;;;;;4.20;1.70;;;20.70;39.80;;;;;;5379418;26;20018;-50
2024/04/20 12:55:43;;;;;;;4.82;1.80;;;20.80;39.90;;;;;;5399354;26;20322;-56
2024/04/20 12:58:27;;;;;;;2.47;1.30;;;20.80;39.70;;;;;;5365515;26;20552;-46
2024/04/20 13:01:12;;;;;;;6.45;2.33;;;21.00;40.10;;;;;;5356165;26;20424;-48
2024/04/20 13:03:57;;;;;;;2.55;1.60;;;21.00;40.00;;;;;;5386471;26;20037;-49
2024/04/20 13:06:42;;;;;;;3.03;1.55;;;21.10;40.20;;;;;;5360113;26;20022;-50
2024/04/20 13:09:27;;;;;;;1.88;1.23;;;21.20;40.20;;;;;;5385581;26;20006;-50
2024/04/20 13:12:12;;;;;;;3.85;1.25;;;21.40;40.50;;;;;;5365953;26;20009;-47
2024/04/20 13:14:57;;;;;;;2.17;1.23;;;21.40;40.30;;;;;;5386891;26;20412;-48
2024/04/20 13:17:43;;;;;;;4.22;1.80;;;21.50;40.30;;;;;;5381890;26;20173;-47
2024/04/20 13:20:28;;;;;;;3.17;2.00;;;21.70;40.50;;;;;;5388427;26;20532;-46
2024/04/20 13:23:13;;;;;;;5.03;2.17;;;21.90;40.60;;;;;;5387226;26;20003;-48
2024/04/20 13:25:58;;;;;;;3.75;1.70;;;22.10;40.70;;;;;;5357581;26;20033;-48
2024/04/20 13:28:42;;;;;;;2.47;1.30;;;22.20;40.80;;;;;;5401042;26;20026;-48
2024/04/20 13:31:28;;;;;;;1.88;1.40;;;22.20;40.70;;;;;;5369088;26;20048;-51
2024/04/20 13:34:13;;;;;;;2.67;1.27;;;22.40;40.80;;;;;;5361216;26;20010;-47
2024/04/20 13:36:58;;;;;;;3.75;1.27;;;22.60;40.80;;;;;;5391651;26;20105;-46
2024/04/20 13:39:42;;;;;;;3.53;1.40;;;22.90;41.10;;;;;;5389550;26;20076;-46
2024/04/20 13:42:27;;;;;;;2.92;1.10;;;23.00;41.00;;;;;;5387529;26;20010;-51
2024/04/20 13:45:11;;;;;;;2.20;1.35;;;23.10;40.90;;;;;;5388521;26;20137;-50
2024/04/20 13:47:58;;;;;;;1.55;1.00;;;23.20;40.90;;;;;;5389623;26;20045;-48
2024/04/20 13:50:43;;;;;;;3.25;1.38;;;23.40;41.00;;;;;;5387656;26;20397;-47
2024/04/20 13:53:28;;;;;;;2.85;1.20;;;23.60;41.10;;;;;;5385986;26;20606;-46
2024/04/20 13:56:14;;;;;;;2.42;1.30;;;23.70;41.10;;;;;;5379480;26;20109;-47
2024/04/20 13:59:01;;;;;;;4.70;1.60;;;23.70;40.90;;;;;;5390536;26;20073;-48
2024/04/20 14:01:46;;;;;;;3.25;1.45;;;23.90;41.10;;;;;;5385936;26;20106;-49
2024/04/20 14:04:32;;;;;;;1.75;1.00;;;24.00;41.70;;;;;;5360936;26;20132;-48
2024/04/20 14:07:17;;;;;;;2.83;1.15;;;24.10;41.10;;;;;;5393444;26;20007;-49
2024/04/20 14:10:02;;;;;;;2.35;1.27;;;24.20;41.00;;;;;;5330755;26;20722;-50
2024/04/20 14:12:50;;;;;;;5.57;1.50;;;24.30;41.00;;;;;;5378810;26;20179;-47
2024/04/20 14:15:35;;;;;;;2.42;1.10;;;24.50;41.10;;;;;;5383718;26;20312;-47
2024/04/20 14:18:20;;;;;;;3.00;1.58;;;24.60;41.10;;;;;;5384124;26;20022;-51
2024/04/20 14:21:05;;;;;;;3.75;1.90;;;24.70;41.10;;;;;;5388662;26;20063;-53
2024/04/20 14:23:49;;;;;;;2.92;1.08;;;24.80;41.20;;;;;;5362240;26;20064;-50
2024/04/20 14:26:34;;;;;;;3.75;1.30;;;24.90;41.20;;;;;;5383993;26;20535;-48